createdAt,value
2023-06-29T00:00:16.223Z,88802.00
2023-06-29T00:01:16.300Z,88800.00
2023-06-29T00:02:16.151Z,88798.00
2023-06-29T00:03:19.480Z,88798.00
2023-06-29T00:04:16.074Z,88798.00
2023-06-29T00:05:16.106Z,88796.00
2023-06-29T00:06:16.052Z,88796.00
2023-06-29T00:07:16.146Z,88796.00
2023-06-29T00:08:16.070Z,88796.00
2023-06-29T00:09:16.058Z,88796.00
2023-06-29T00:10:15.998Z,88798.00
2023-06-29T00:11:15.923Z,88798.00
2023-06-29T00:12:15.919Z,88798.00
2023-06-29T00:13:15.958Z,88798.00
2023-06-29T00:14:15.987Z,88798.00
2023-06-29T00:15:15.860Z,88796.00
2023-06-29T00:16:15.831Z,88798.00
2023-06-29T00:17:15.801Z,88796.00
2023-06-29T00:18:15.838Z,88795.00
2023-06-29T00:19:16.138Z,88793.00
2023-06-29T00:20:15.814Z,88789.00
2023-06-29T00:21:15.754Z,88789.00
2023-06-29T00:22:15.716Z,88787.00
2023-06-29T00:23:15.733Z,88785.00
2023-06-29T00:24:15.696Z,88785.00
2023-06-29T00:25:15.722Z,88783.00
2023-06-29T00:26:15.668Z,88785.00
2023-06-29T00:27:15.657Z,88787.00
2023-06-29T00:28:15.733Z,88787.00
2023-06-29T00:29:15.616Z,88787.00
2023-06-29T00:30:15.598Z,88789.00
2023-06-29T00:31:15.613Z,88789.00
2023-06-29T00:32:15.573Z,88789.00
2023-06-29T00:33:15.540Z,88787.00
2023-06-29T00:34:15.539Z,88787.00
2023-06-29T00:35:15.540Z,88787.00
2023-06-29T00:36:15.522Z,88785.00
2023-06-29T00:37:15.524Z,88783.00
2023-06-29T00:38:15.517Z,88783.00
2023-06-29T00:39:15.483Z,88779.00
2023-06-29T00:40:15.650Z,88781.00
2023-06-29T00:41:15.463Z,88781.00
2023-06-29T00:42:15.525Z,88781.00
2023-06-29T00:43:15.426Z,88777.00
2023-06-29T00:44:15.415Z,88769.00
2023-06-29T00:45:15.392Z,88765.00
2023-06-29T00:46:15.390Z,88767.00
2023-06-29T00:47:15.381Z,88767.00
2023-06-29T00:48:15.464Z,88767.00
2023-06-29T00:49:15.357Z,88767.00
2023-06-29T00:50:15.361Z,88769.00
2023-06-29T00:51:15.396Z,88767.00
2023-06-29T00:52:15.452Z,88767.00
2023-06-29T00:53:15.451Z,88767.00
2023-06-29T00:54:15.429Z,88765.00
2023-06-29T00:55:15.455Z,88765.00
2023-06-29T00:56:15.474Z,88765.00
2023-06-29T00:57:15.379Z,88765.00
2023-06-29T00:58:16.323Z,88761.00
2023-06-29T00:59:15.366Z,88759.00
2023-06-29T01:00:15.339Z,88761.00
2023-06-29T01:01:15.395Z,88761.00
2023-06-29T01:02:15.321Z,88761.00
2023-06-29T01:03:15.763Z,88761.00
2023-06-29T01:04:15.314Z,88763.00
2023-06-29T01:05:15.296Z,88761.00
2023-06-29T01:06:15.308Z,88759.00
2023-06-29T01:07:15.312Z,88757.00
2023-06-29T01:08:15.290Z,88759.00
2023-06-29T01:09:16.170Z,88757.00
2023-06-29T01:10:15.266Z,88757.00
2023-06-29T01:11:15.248Z,88757.00
2023-06-29T01:12:15.291Z,88755.00
2023-06-29T01:13:15.227Z,88757.00
2023-06-29T01:14:15.296Z,88755.00
2023-06-29T01:15:15.200Z,88757.00
2023-06-29T01:16:15.238Z,88759.00
2023-06-29T01:17:15.192Z,88757.00
2023-06-29T01:18:15.256Z,88755.00
2023-06-29T01:19:15.181Z,88753.00
2023-06-29T01:20:15.210Z,88757.00
2023-06-29T01:21:15.142Z,88755.00
2023-06-29T01:22:15.141Z,88755.00
2023-06-29T01:23:15.261Z,88753.00
2023-06-29T01:24:15.114Z,88751.00
2023-06-29T01:25:15.115Z,88751.00
2023-06-29T01:26:15.106Z,88751.00
2023-06-29T01:27:15.118Z,88749.00
2023-06-29T01:28:15.150Z,88748.00
2023-06-29T01:29:15.051Z,88748.00
2023-06-29T01:30:15.122Z,88748.00
2023-06-29T01:31:15.072Z,88746.00
2023-06-29T01:32:15.028Z,88746.00
2023-06-29T01:33:15.103Z,88744.00
2023-06-29T01:34:14.987Z,88746.00
2023-06-29T01:35:15.015Z,88746.00
2023-06-29T01:36:14.975Z,88744.00
2023-06-29T01:37:14.981Z,88744.00
2023-06-29T01:38:14.988Z,88746.00
2023-06-29T01:39:14.928Z,88746.00
2023-06-29T01:40:14.920Z,88746.00
2023-06-29T01:41:14.912Z,88749.00
2023-06-29T01:42:14.897Z,88748.00
2023-06-29T01:43:15.210Z,88746.00
2023-06-29T01:44:14.862Z,88746.00
2023-06-29T01:45:14.921Z,88742.00
2023-06-29T01:46:14.873Z,88744.00
2023-06-29T01:47:14.820Z,88744.00
2023-06-29T01:48:14.913Z,88746.00
2023-06-29T01:49:14.822Z,88746.00
2023-06-29T01:50:14.793Z,88748.00
2023-06-29T01:51:14.816Z,88746.00
2023-06-29T01:52:14.783Z,88749.00
2023-06-29T01:53:15.367Z,88748.00
2023-06-29T01:54:14.752Z,88749.00
2023-06-29T01:55:14.771Z,88748.00
2023-06-29T01:56:14.731Z,88748.00
2023-06-29T01:57:14.773Z,88748.00
2023-06-29T01:58:15.278Z,88746.00
2023-06-29T01:59:14.691Z,88744.00
2023-06-29T02:00:14.684Z,88746.00
2023-06-29T02:01:14.724Z,88742.00
2023-06-29T02:02:14.671Z,88742.00
2023-06-29T02:03:14.742Z,88740.00
2023-06-29T02:04:14.650Z,88738.00
2023-06-29T02:05:14.667Z,88738.00
2023-06-29T02:06:14.672Z,88736.00
2023-06-29T02:07:15.267Z,88734.00
2023-06-29T02:08:14.647Z,88736.00
2023-06-29T02:09:14.614Z,88734.00
2023-06-29T02:10:14.618Z,88736.00
2023-06-29T02:11:14.621Z,88727.00
2023-06-29T02:12:14.651Z,88727.00
2023-06-29T02:13:14.689Z,88727.00
2023-06-29T02:14:14.678Z,88727.00
2023-06-29T02:15:14.679Z,88734.00
2023-06-29T02:16:14.671Z,88727.00
2023-06-29T02:17:14.665Z,88727.00
2023-06-29T02:18:14.622Z,88727.00
2023-06-29T02:19:14.632Z,88727.00
2023-06-29T02:20:14.619Z,88727.00
2023-06-29T02:21:14.614Z,88723.00
2023-06-29T02:22:14.706Z,88723.00
2023-06-29T02:23:14.616Z,88721.00
2023-06-29T02:24:14.657Z,88717.00
2023-06-29T02:25:14.745Z,88719.00
2023-06-29T02:26:14.717Z,88719.00
2023-06-29T02:27:14.687Z,88717.00
2023-06-29T02:28:14.702Z,88717.00
2023-06-29T02:29:14.661Z,88717.00
2023-06-29T02:30:14.822Z,88713.00
2023-06-29T02:31:14.747Z,88715.00
2023-06-29T02:32:14.626Z,88717.00
2023-06-29T02:33:14.881Z,88715.00
2023-06-29T02:34:14.594Z,88709.00
2023-06-29T02:35:14.575Z,88713.00
2023-06-29T02:36:14.579Z,88709.00
2023-06-29T02:37:14.560Z,88711.00
2023-06-29T02:38:14.582Z,88707.00
2023-06-29T02:39:14.649Z,88709.00
2023-06-29T02:40:14.677Z,88709.00
2023-06-29T02:41:14.655Z,88711.00
2023-06-29T02:42:14.649Z,88711.00
2023-06-29T02:43:16.242Z,88713.00
2023-06-29T02:44:14.642Z,88711.00
2023-06-29T02:45:14.626Z,88713.00
2023-06-29T02:46:14.658Z,88715.00
2023-06-29T02:47:14.650Z,88717.00
2023-06-29T02:48:14.611Z,88715.00
2023-06-29T02:49:14.597Z,88715.00
2023-06-29T02:50:14.668Z,88715.00
2023-06-29T02:51:14.618Z,88715.00
2023-06-29T02:52:14.715Z,88715.00
2023-06-29T02:53:14.660Z,88717.00
2023-06-29T02:54:14.570Z,88725.00
2023-06-29T02:55:14.607Z,88727.00
2023-06-29T02:56:14.587Z,88723.00
2023-06-29T02:57:14.642Z,88723.00
2023-06-29T02:58:14.715Z,88723.00
2023-06-29T02:59:14.563Z,88723.00
2023-06-29T03:00:14.606Z,88721.00
2023-06-29T03:01:14.609Z,88719.00
2023-06-29T03:02:14.649Z,88721.00
2023-06-29T03:03:14.678Z,88721.00
2023-06-29T03:04:14.599Z,88723.00
2023-06-29T03:05:15.262Z,88719.00
2023-06-29T03:06:14.536Z,88709.00
2023-06-29T03:07:15.290Z,88713.00
2023-06-29T03:08:14.564Z,88715.00
2023-06-29T03:09:14.497Z,88715.00
2023-06-29T03:10:14.540Z,88719.00
2023-06-29T03:11:14.494Z,88727.00
2023-06-29T03:12:14.469Z,88734.00
2023-06-29T03:13:14.762Z,88734.00
2023-06-29T03:14:14.435Z,88727.00
2023-06-29T03:15:15.235Z,88734.00
2023-06-29T03:16:14.548Z,88723.00
2023-06-29T03:17:14.497Z,88725.00
2023-06-29T03:18:14.774Z,88727.00
2023-06-29T03:19:15.228Z,88727.00
2023-06-29T03:20:14.509Z,88734.00
2023-06-29T03:21:18.272Z,88727.00
2023-06-29T03:22:15.237Z,88727.00
2023-06-29T03:23:15.438Z,88727.00
2023-06-29T03:24:15.254Z,88725.00
2023-06-29T03:25:14.499Z,88723.00
2023-06-29T03:26:14.496Z,88721.00
2023-06-29T03:27:14.420Z,88719.00
2023-06-29T03:28:14.828Z,88719.00
2023-06-29T03:29:14.514Z,88721.00
2023-06-29T03:30:14.528Z,88717.00
2023-06-29T03:31:14.572Z,88717.00
2023-06-29T03:32:14.627Z,88713.00
2023-06-29T03:33:15.319Z,88715.00
2023-06-29T03:34:14.773Z,88717.00
2023-06-29T03:35:14.721Z,88715.00
2023-06-29T03:36:14.744Z,88717.00
2023-06-29T03:37:14.716Z,88717.00
2023-06-29T03:38:14.735Z,88719.00
2023-06-29T03:39:14.750Z,88717.00
2023-06-29T03:40:14.731Z,88717.00
2023-06-29T03:41:14.685Z,88719.00
2023-06-29T03:42:14.707Z,88717.00
2023-06-29T03:43:14.782Z,88715.00
2023-06-29T03:44:14.685Z,88717.00
2023-06-29T03:45:14.656Z,88717.00
2023-06-29T03:46:14.728Z,88715.00
2023-06-29T03:47:14.677Z,88709.00
2023-06-29T03:48:14.745Z,88709.00
2023-06-29T03:49:14.685Z,88711.00
2023-06-29T03:50:14.632Z,88711.00
2023-06-29T03:51:14.653Z,88711.00
2023-06-29T03:52:14.634Z,88713.00
2023-06-29T03:53:14.745Z,88711.00
2023-06-29T03:54:14.628Z,88711.00
2023-06-29T03:55:14.621Z,88713.00
2023-06-29T03:56:14.650Z,88713.00
2023-06-29T03:57:14.620Z,88713.00
2023-06-29T03:58:14.623Z,88713.00
2023-06-29T03:59:14.598Z,88717.00
2023-06-29T04:00:14.591Z,88715.00
2023-06-29T04:01:14.613Z,88719.00
2023-06-29T04:02:14.646Z,88719.00
2023-06-29T04:03:15.319Z,88719.00
2023-06-29T04:04:14.625Z,88715.00
2023-06-29T04:05:14.609Z,88717.00
2023-06-29T04:06:14.569Z,88717.00
2023-06-29T04:07:14.664Z,88715.00
2023-06-29T04:08:14.585Z,88717.00
2023-06-29T04:09:14.586Z,88717.00
2023-06-29T04:10:14.597Z,88721.00
2023-06-29T04:11:14.587Z,88719.00
2023-06-29T04:12:14.593Z,88719.00
2023-06-29T04:13:19.425Z,88715.00
2023-06-29T04:14:14.576Z,88715.00
2023-06-29T04:15:14.593Z,88715.00
2023-06-29T04:16:14.634Z,88715.00
2023-06-29T04:17:14.577Z,88713.00
2023-06-29T04:18:14.596Z,88713.00
2023-06-29T04:19:16.944Z,88713.00
2023-06-29T04:20:14.577Z,88711.00
2023-06-29T04:21:14.593Z,88711.00
2023-06-29T04:22:14.593Z,88709.00
2023-06-29T04:23:14.599Z,88709.00
2023-06-29T04:24:14.597Z,88707.00
2023-06-29T04:25:14.599Z,88705.00
2023-06-29T04:26:14.605Z,88705.00
2023-06-29T04:27:14.610Z,88705.00
2023-06-29T04:28:14.641Z,88705.00
2023-06-29T04:29:14.658Z,88707.00
2023-06-29T04:30:14.624Z,88707.00
2023-06-29T04:31:14.654Z,88709.00
2023-06-29T04:32:14.681Z,88709.00
2023-06-29T04:33:14.783Z,88711.00
2023-06-29T04:34:14.643Z,88707.00
2023-06-29T04:35:14.699Z,88713.00
2023-06-29T04:36:14.682Z,88713.00
2023-06-29T04:37:14.624Z,88711.00
2023-06-29T04:38:14.689Z,88711.00
2023-06-29T04:39:14.642Z,88709.00
2023-06-29T04:40:14.636Z,88711.00
2023-06-29T04:41:14.627Z,88709.00
2023-06-29T04:42:14.654Z,88707.00
2023-06-29T04:43:14.746Z,88705.00
2023-06-29T04:44:14.630Z,88707.00
2023-06-29T04:45:14.634Z,88709.00
2023-06-29T04:46:14.660Z,88707.00
2023-06-29T04:47:14.671Z,88709.00
2023-06-29T04:48:14.626Z,88709.00
2023-06-29T04:49:14.636Z,88709.00
2023-06-29T04:50:14.756Z,88711.00
2023-06-29T04:51:14.691Z,88711.00
2023-06-29T04:52:14.647Z,88709.00
2023-06-29T04:53:14.612Z,88705.00
2023-06-29T04:54:14.613Z,88707.00
2023-06-29T04:55:14.601Z,88705.00
2023-06-29T04:56:14.616Z,88703.00
2023-06-29T04:57:14.692Z,88701.00
2023-06-29T04:58:14.623Z,88701.00
2023-06-29T04:59:14.583Z,88699.00
2023-06-29T05:00:14.586Z,88699.00
2023-06-29T05:01:14.613Z,88697.00
2023-06-29T05:02:14.621Z,88697.00
2023-06-29T05:03:14.943Z,88697.00
2023-06-29T05:04:14.557Z,88693.00
2023-06-29T05:05:14.565Z,88697.00
2023-06-29T05:06:14.557Z,88697.00
2023-06-29T05:07:14.586Z,88695.00
2023-06-29T05:08:14.594Z,88697.00
2023-06-29T05:09:14.564Z,88695.00
2023-06-29T05:10:14.537Z,88693.00
2023-06-29T05:11:14.541Z,88689.00
2023-06-29T05:12:14.542Z,88687.00
2023-06-29T05:13:14.610Z,88685.00
2023-06-29T05:14:14.516Z,88685.00
2023-06-29T05:15:14.508Z,88683.00
2023-06-29T05:16:14.518Z,88681.00
2023-06-29T05:17:14.612Z,88683.00
2023-06-29T05:18:14.502Z,88681.00
2023-06-29T05:19:14.486Z,88681.00
2023-06-29T05:20:14.497Z,88681.00
2023-06-29T05:21:14.494Z,88677.00
2023-06-29T05:22:14.458Z,88677.00
2023-06-29T05:23:14.503Z,88677.00
2023-06-29T05:24:14.455Z,88673.00
2023-06-29T05:25:14.463Z,88675.00
2023-06-29T05:26:14.454Z,88673.00
2023-06-29T05:27:14.422Z,88673.00
2023-06-29T05:28:14.424Z,88672.00
2023-06-29T05:29:14.452Z,88673.00
2023-06-29T05:30:14.487Z,88672.00
2023-06-29T05:31:16.374Z,88673.00
2023-06-29T05:32:14.407Z,88668.00
2023-06-29T05:33:14.414Z,88668.00
2023-06-29T05:34:14.411Z,88668.00
2023-06-29T05:35:14.418Z,88668.00
2023-06-29T05:36:14.370Z,88666.00
2023-06-29T05:37:14.489Z,88668.00
2023-06-29T05:38:14.783Z,88666.00
2023-06-29T05:39:14.452Z,88664.00
2023-06-29T05:40:14.465Z,88666.00
2023-06-29T05:41:14.423Z,88662.00
2023-06-29T05:42:14.410Z,88662.00
2023-06-29T05:43:15.984Z,88664.00
2023-06-29T05:44:14.387Z,88658.00
2023-06-29T05:45:14.490Z,88662.00
2023-06-29T05:46:14.645Z,88660.00
2023-06-29T05:47:14.355Z,88660.00
2023-06-29T05:48:14.417Z,88658.00
2023-06-29T05:49:14.501Z,88658.00
2023-06-29T05:50:14.399Z,88658.00
2023-06-29T05:51:14.327Z,88660.00
2023-06-29T05:52:14.337Z,88658.00
2023-06-29T05:53:14.359Z,88660.00
2023-06-29T05:54:14.332Z,88662.00
2023-06-29T05:55:14.333Z,88658.00
2023-06-29T05:56:14.334Z,88658.00
2023-06-29T05:57:14.374Z,88654.00
2023-06-29T05:58:14.381Z,88656.00
2023-06-29T05:59:14.305Z,88656.00
2023-06-29T06:00:14.298Z,88656.00
2023-06-29T06:01:14.386Z,88656.00
2023-06-29T06:02:14.274Z,88650.00
2023-06-29T06:03:14.434Z,88648.00
2023-06-29T06:04:14.309Z,88650.00
2023-06-29T06:05:14.258Z,88650.00
2023-06-29T06:06:14.293Z,88648.00
2023-06-29T06:07:14.282Z,88652.00
2023-06-29T06:08:15.712Z,88654.00
2023-06-29T06:09:14.236Z,88650.00
2023-06-29T06:10:14.186Z,88652.00
2023-06-29T06:11:14.191Z,88648.00
2023-06-29T06:12:14.157Z,88648.00
2023-06-29T06:13:14.229Z,88650.00
2023-06-29T06:14:14.183Z,88642.00
2023-06-29T06:15:14.147Z,88648.00
2023-06-29T06:16:14.192Z,88644.00
2023-06-29T06:17:14.168Z,88646.00
2023-06-29T06:18:14.252Z,88640.00
2023-06-29T06:19:14.277Z,88642.00
2023-06-29T06:20:14.320Z,88640.00
2023-06-29T06:21:14.374Z,88638.00
2023-06-29T06:22:14.392Z,88634.00
2023-06-29T06:23:14.429Z,88636.00
2023-06-29T06:24:14.460Z,88636.00
2023-06-29T06:25:14.457Z,88638.00
2023-06-29T06:26:14.455Z,88638.00
2023-06-29T06:27:14.450Z,88636.00
2023-06-29T06:28:14.858Z,88638.00
2023-06-29T06:29:14.407Z,88634.00
2023-06-29T06:30:14.375Z,88636.00
2023-06-29T06:31:24.396Z,88636.00
2023-06-29T06:32:15.356Z,88632.00
2023-06-29T06:33:14.332Z,88634.00
2023-06-29T06:34:14.426Z,88630.00
2023-06-29T06:35:14.316Z,88628.00
2023-06-29T06:36:14.241Z,88630.00
2023-06-29T06:37:14.233Z,88628.00
2023-06-29T06:38:14.216Z,88630.00
2023-06-29T06:39:14.185Z,88630.00
2023-06-29T06:40:14.179Z,88628.00
2023-06-29T06:41:14.823Z,88624.00
2023-06-29T06:42:14.138Z,88624.00
2023-06-29T06:43:14.173Z,88628.00
2023-06-29T06:44:14.086Z,88628.00
2023-06-29T06:45:14.124Z,88628.00
2023-06-29T06:46:14.068Z,88624.00
2023-06-29T06:47:14.013Z,88617.00
2023-06-29T06:48:14.234Z,88617.00
2023-06-29T06:49:13.977Z,88615.00
2023-06-29T06:50:13.988Z,88613.00
2023-06-29T06:51:13.920Z,88613.00
2023-06-29T06:52:13.965Z,88615.00
2023-06-29T06:53:13.947Z,88611.00
2023-06-29T06:54:13.882Z,88607.00
2023-06-29T06:55:13.869Z,88609.00
2023-06-29T06:56:13.864Z,88605.00
2023-06-29T06:57:13.823Z,88605.00
2023-06-29T06:58:13.773Z,88607.00
2023-06-29T06:59:13.761Z,88603.00
2023-06-29T07:00:13.796Z,88603.00
2023-06-29T07:01:13.765Z,88599.00
2023-06-29T07:02:13.804Z,88595.00
2023-06-29T07:03:13.781Z,88593.00
2023-06-29T07:04:13.660Z,88595.00
2023-06-29T07:05:13.635Z,88591.00
2023-06-29T07:06:13.652Z,88589.00
2023-06-29T07:07:13.644Z,88583.00
2023-06-29T07:08:13.597Z,88579.00
2023-06-29T07:09:14.431Z,88581.00
2023-06-29T07:10:13.504Z,88579.00
2023-06-29T07:11:13.467Z,88579.00
2023-06-29T07:12:13.447Z,88577.00
2023-06-29T07:13:13.480Z,88581.00
2023-06-29T07:14:13.372Z,88577.00
2023-06-29T07:15:13.437Z,88581.00
2023-06-29T07:16:13.341Z,88581.00
2023-06-29T07:17:13.342Z,88577.00
2023-06-29T07:18:13.396Z,88577.00
2023-06-29T07:24:13.152Z,88573.00
2023-06-29T07:25:13.115Z,88573.00
2023-06-29T07:26:13.178Z,88575.00
2023-06-29T07:27:13.043Z,88575.00
2023-06-29T07:28:13.042Z,88577.00
2023-06-29T07:29:13.014Z,88573.00
2023-06-29T07:30:12.958Z,88570.00
2023-06-29T07:31:13.082Z,88566.00
2023-06-29T07:32:12.922Z,88570.00
2023-06-29T07:33:12.977Z,88566.00
2023-06-29T07:34:12.864Z,88564.00
2023-06-29T07:35:12.831Z,88564.00
2023-06-29T07:36:12.838Z,88562.00
2023-06-29T07:37:12.806Z,88554.00
2023-06-29T07:38:12.781Z,88558.00
2023-06-29T07:39:12.740Z,88556.00
2023-06-29T07:40:12.732Z,88554.00
2023-06-29T07:41:12.770Z,88556.00
2023-06-29T07:42:13.357Z,88558.00
2023-06-29T07:43:12.733Z,88560.00
2023-06-29T07:44:12.733Z,88558.00
2023-06-29T07:45:12.740Z,88560.00
2023-06-29T07:46:13.352Z,88560.00
2023-06-29T07:47:12.803Z,88556.00
2023-06-29T07:48:12.920Z,88552.00
2023-06-29T07:49:12.833Z,88552.00
2023-06-29T07:50:12.834Z,88556.00
2023-06-29T07:51:12.878Z,88554.00
2023-06-29T07:52:12.778Z,88554.00
2023-06-29T07:53:12.795Z,88554.00
2023-06-29T07:54:12.804Z,88548.00
2023-06-29T07:55:12.723Z,88544.00
2023-06-29T07:56:12.696Z,88544.00
2023-06-29T07:59:12.603Z,88544.00
2023-06-29T08:00:12.570Z,88542.00
2023-06-29T08:01:12.566Z,88540.00
2023-06-29T08:02:12.694Z,88542.00
2023-06-29T08:03:12.507Z,88542.00
2023-06-29T08:04:12.537Z,88540.00
2023-06-29T08:07:12.485Z,88538.00
2023-06-29T08:08:12.575Z,88536.00
2023-06-29T08:09:12.378Z,88536.00
2023-06-29T08:10:12.310Z,88536.00
2023-06-29T08:11:12.242Z,88536.00
2023-06-29T08:12:12.218Z,88534.00
2023-06-29T08:13:12.272Z,88534.00
2023-06-29T08:14:12.172Z,88536.00
2023-06-29T08:15:12.146Z,88536.00
2023-06-29T08:16:12.245Z,88538.00
2023-06-29T08:17:12.211Z,88538.00
2023-06-29T08:18:12.288Z,88532.00
2023-06-29T08:19:12.324Z,88534.00
2023-06-29T08:20:12.325Z,88532.00
2023-06-29T08:21:12.357Z,88532.00
2023-06-29T08:22:12.460Z,88530.00
2023-06-29T08:23:12.447Z,88534.00
2023-06-29T08:24:12.468Z,88528.00
2023-06-29T08:25:12.480Z,88524.00
2023-06-29T08:26:12.557Z,88522.00
2023-06-29T08:27:12.537Z,88520.00
2023-06-29T08:28:12.571Z,88520.00
2023-06-29T08:29:12.590Z,88522.00
2023-06-29T08:30:12.623Z,88520.00
2023-06-29T08:31:12.727Z,88520.00
2023-06-29T08:32:12.889Z,88520.00
2023-06-29T08:33:13.184Z,88516.00
2023-06-29T08:34:12.823Z,88520.00
2023-06-29T08:35:12.756Z,88520.00
2023-06-29T08:36:12.754Z,88518.00
2023-06-29T08:37:12.820Z,88515.00
2023-06-29T08:38:12.795Z,88516.00
2023-06-29T08:39:12.833Z,88520.00
2023-06-29T08:40:12.884Z,88522.00
2023-06-29T08:41:12.872Z,88520.00
2023-06-29T08:42:12.873Z,88520.00
2023-06-29T08:43:12.909Z,88520.00
2023-06-29T08:44:12.924Z,88520.00
2023-06-29T08:45:12.953Z,88522.00
2023-06-29T08:46:12.975Z,88524.00
2023-06-29T08:47:12.949Z,88522.00
2023-06-29T08:48:12.914Z,88520.00
2023-06-29T08:49:12.841Z,88522.00
2023-06-29T08:50:12.832Z,88518.00
2023-06-29T08:51:13.021Z,88520.00
2023-06-29T08:52:12.756Z,88522.00
2023-06-29T08:53:12.760Z,88518.00
2023-06-29T08:54:12.653Z,88516.00
2023-06-29T08:55:12.639Z,88513.00
2023-06-29T08:56:12.581Z,88513.00
2023-06-29T08:57:12.556Z,88515.00
2023-06-29T08:58:12.534Z,88520.00
2023-06-29T08:59:12.489Z,88516.00
2023-06-29T09:00:13.442Z,88515.00
2023-06-29T09:01:12.410Z,88516.00
2023-06-29T09:02:12.412Z,88518.00
2023-06-29T09:03:12.535Z,88516.00
2023-06-29T09:04:12.383Z,88513.00
2023-06-29T09:05:12.288Z,88516.00
2023-06-29T09:06:13.899Z,88518.00
2023-06-29T09:07:12.185Z,88513.00
2023-06-29T09:08:12.172Z,88513.00
2023-06-29T09:09:12.101Z,88509.00
2023-06-29T09:10:12.052Z,88515.00
2023-06-29T09:11:12.046Z,88511.00
2023-06-29T09:12:12.009Z,88511.00
2023-06-29T09:13:11.975Z,88509.00
2023-06-29T09:14:11.966Z,88509.00
2023-06-29T09:15:11.903Z,88503.00
2023-06-29T09:16:11.947Z,88505.00
2023-06-29T09:17:11.838Z,88505.00
2023-06-29T09:18:11.958Z,88503.00
2023-06-29T09:19:11.748Z,88505.00
2023-06-29T09:20:11.706Z,88509.00
2023-06-29T09:21:11.673Z,88499.00
2023-06-29T09:22:11.639Z,88505.00
2023-06-29T09:23:11.606Z,88503.00
2023-06-29T09:24:11.588Z,88503.00
2023-06-29T09:25:23.332Z,88501.00
2023-06-29T09:26:13.451Z,88491.00
2023-06-29T09:27:11.445Z,88483.00
2023-06-29T09:28:11.424Z,88495.00
2023-06-29T09:29:11.395Z,88495.00
2023-06-29T09:30:11.341Z,88489.00
2023-06-29T09:31:11.323Z,88485.00
2023-06-29T09:32:11.266Z,88489.00
2023-06-29T09:33:11.544Z,88485.00
2023-06-29T09:34:11.185Z,88481.00
2023-06-29T09:35:11.224Z,88479.00
2023-06-29T09:36:11.101Z,88477.00
2023-06-29T09:37:11.060Z,88479.00
2023-06-29T09:38:10.993Z,88477.00
2023-06-29T09:39:10.956Z,88487.00
2023-06-29T09:40:10.923Z,88481.00
2023-06-29T09:41:12.910Z,88479.00
2023-06-29T09:42:10.954Z,88479.00
2023-06-29T09:43:10.795Z,88479.00
2023-06-29T09:44:10.786Z,88477.00
2023-06-29T09:45:11.316Z,88479.00
2023-06-29T09:46:10.789Z,88479.00
2023-06-29T09:49:11.119Z,88487.00
2023-06-29T09:50:10.614Z,88477.00
2023-06-29T09:51:10.666Z,88477.00
2023-06-29T09:52:10.507Z,88477.00
2023-06-29T09:53:10.442Z,88462.00
2023-06-29T09:54:10.339Z,88466.00
2023-06-29T09:55:10.299Z,88468.00
2023-06-29T09:56:10.288Z,88470.00
2023-06-29T09:57:10.309Z,88468.00
2023-06-29T09:58:11.914Z,88462.00
2023-06-29T09:59:10.141Z,88464.00
2023-06-29T10:00:10.109Z,88468.00
2023-06-29T10:01:10.111Z,88466.00
2023-06-29T10:02:10.142Z,88460.00
2023-06-29T10:03:10.052Z,88462.00
2023-06-29T10:04:10.022Z,88462.00
2023-06-29T10:05:09.916Z,88464.00
2023-06-29T10:06:09.895Z,88453.00
2023-06-29T10:07:09.985Z,88453.00
2023-06-29T10:08:09.779Z,88456.00
2023-06-29T10:09:09.736Z,88458.00
2023-06-29T10:10:09.721Z,88464.00
2023-06-29T10:11:09.671Z,88455.00
2023-06-29T10:12:09.620Z,88453.00
2023-06-29T10:13:09.601Z,88449.00
2023-06-29T10:14:09.542Z,88447.00
2023-06-29T10:15:09.513Z,88447.00
2023-06-29T10:16:09.455Z,88449.00
2023-06-29T10:17:10.412Z,88453.00
2023-06-29T10:18:09.437Z,88451.00
2023-06-29T10:19:09.387Z,88449.00
2023-06-29T10:20:09.456Z,88443.00
2023-06-29T10:21:09.384Z,88445.00
2023-06-29T10:22:09.330Z,88447.00
2023-06-29T10:23:09.344Z,88447.00
2023-06-29T10:24:09.294Z,88445.00
2023-06-29T10:25:09.285Z,88441.00
2023-06-29T10:26:09.263Z,88441.00
2023-06-29T10:27:09.258Z,88439.00
2023-06-29T10:28:09.253Z,88447.00
2023-06-29T10:29:09.200Z,88439.00
2023-06-29T10:30:09.133Z,88439.00
2023-06-29T10:31:09.190Z,88439.00
2023-06-29T10:32:09.087Z,88439.00
2023-06-29T10:33:09.468Z,88437.00
2023-06-29T10:34:09.025Z,88433.00
2023-06-29T10:35:09.017Z,88433.00
2023-06-29T10:36:08.926Z,88433.00
2023-06-29T10:37:08.869Z,88433.00
2023-06-29T10:38:08.837Z,88433.00
2023-06-29T10:39:08.802Z,88427.00
2023-06-29T10:40:08.767Z,88429.00
2023-06-29T10:41:08.728Z,88429.00
2023-06-29T10:42:08.726Z,88429.00
2023-06-29T10:43:08.674Z,88429.00
2023-06-29T10:44:08.600Z,88425.00
2023-06-29T10:45:08.577Z,88425.00
2023-06-29T10:46:08.615Z,88429.00
2023-06-29T10:47:08.493Z,88431.00
2023-06-29T10:48:08.562Z,88425.00
2023-06-29T10:49:08.433Z,88429.00
2023-06-29T10:50:08.400Z,88425.00
2023-06-29T10:51:08.339Z,88427.00
2023-06-29T10:52:08.306Z,88423.00
2023-06-29T10:53:08.302Z,88427.00
2023-06-29T10:54:08.286Z,88427.00
2023-06-29T10:55:08.216Z,88429.00
2023-06-29T10:56:08.184Z,88425.00
2023-06-29T10:57:08.118Z,88421.00
2023-06-29T10:58:08.087Z,88419.00
2023-06-29T10:59:08.047Z,88421.00
2023-06-29T11:00:08.028Z,88419.00
2023-06-29T11:01:07.991Z,88417.00
2023-06-29T11:02:08.071Z,88419.00
2023-06-29T11:03:07.985Z,88415.00
2023-06-29T11:04:07.911Z,88417.00
2023-06-29T11:05:07.827Z,88417.00
2023-06-29T11:06:07.807Z,88413.00
2023-06-29T11:07:07.762Z,88411.00
2023-06-29T11:08:07.724Z,88417.00
2023-06-29T11:09:07.678Z,88413.00
2023-06-29T11:10:07.630Z,88407.00
2023-06-29T11:11:07.595Z,88411.00
2023-06-29T11:12:07.592Z,88413.00
2023-06-29T11:13:07.544Z,88409.00
2023-06-29T11:14:07.943Z,88409.00
2023-06-29T11:16:08.403Z,88411.00
2023-06-29T11:17:07.351Z,88403.00
2023-06-29T11:18:07.386Z,88407.00
2023-06-29T11:19:08.870Z,88405.00
2023-06-29T11:20:07.234Z,88400.00
2023-06-29T11:21:07.172Z,88398.00
2023-06-29T11:22:07.133Z,88400.00
2023-06-29T11:23:07.096Z,88394.00
2023-06-29T11:24:07.073Z,88396.00
2023-06-29T11:25:07.061Z,88394.00
2023-06-29T11:26:06.999Z,88392.00
2023-06-29T11:27:06.980Z,88394.00
2023-06-29T11:28:06.942Z,88394.00
2023-06-29T11:29:06.868Z,88392.00
2023-06-29T11:30:06.839Z,88392.00
2023-06-29T11:31:06.892Z,88392.00
2023-06-29T11:32:06.927Z,88390.00
2023-06-29T11:34:07.769Z,88384.00
2023-06-29T11:35:06.640Z,88388.00
2023-06-29T11:36:06.659Z,88390.00
2023-06-29T11:38:06.686Z,88388.00
2023-06-29T11:39:06.534Z,88388.00
2023-06-29T11:40:06.450Z,88380.00
2023-06-29T11:41:06.516Z,88378.00
2023-06-29T11:42:06.387Z,88376.00
2023-06-29T11:43:06.377Z,88378.00
2023-06-29T11:44:06.307Z,88372.00
2023-06-29T11:45:06.268Z,88370.00
2023-06-29T11:46:06.237Z,88368.00
2023-06-29T11:47:25.534Z,88372.00
2023-06-29T11:48:07.165Z,88366.00
2023-06-29T11:49:06.490Z,88370.00
2023-06-29T11:50:06.057Z,88364.00
2023-06-29T11:51:06.054Z,88362.00
2023-06-29T11:52:05.990Z,88364.00
2023-06-29T11:53:05.957Z,88364.00
2023-06-29T11:54:05.930Z,88364.00
2023-06-29T11:55:05.896Z,88360.00
2023-06-29T11:56:05.864Z,88356.00
2023-06-29T11:57:05.809Z,88354.00
2023-06-29T11:58:05.762Z,88356.00